Time;durP1;ratioP1;P1;durP2;ratioP2;P2;SDS_P1;SDS_P2;PMS_P1;PMS_P2;Temp;Humidity;BMP_temperature;BMP_pressure;BME280_temperature;BME280_humidity;BME280_pressure;Samples;Min_cycle;Max_cycle;Signal;HPM_P1;HPM_P2
2023/06/16 00:01:36;;;;;;;0.30;0.30;;;;;;;17.55;52.40;99062.94;4989929;28;20054;-81
2023/06/16 00:04:06;;;;;;;0.30;0.30;;;;;;;17.63;52.17;99068.88;4991344;28;20140;-81
2023/06/16 00:06:34;;;;;;;0.30;0.30;;;;;;;17.66;51.68;99068.28;4990890;28;20085;-81
2023/06/16 00:09:01;;;;;;;0.30;0.30;;;;;;;17.66;52.50;99071.00;4989967;28;20160;-81
2023/06/16 00:11:28;;;;;;;0.30;0.30;;;;;;;17.66;51.75;99063.63;4991292;28;20057;-82
2023/06/16 00:13:57;;;;;;;0.30;0.30;;;;;;;17.61;51.53;99051.97;4991231;28;20042;-81
2023/06/16 00:16:26;;;;;;;0.30;0.30;;;;;;;17.68;51.67;99057.88;4989326;28;20050;-81
2023/06/16 00:18:57;;;;;;;0.30;0.30;;;;;;;17.83;51.48;99067.84;5005985;28;20137;-82
2023/06/16 00:21:29;;;;;;;0.30;0.30;;;;;;;17.72;52.11;99051.56;4991048;28;20057;-80
2023/06/16 00:23:59;;;;;;;0.30;0.30;;;;;;;17.72;51.51;99053.47;4989828;28;20058;-79
2023/06/16 00:26:26;;;;;;;0.30;0.30;;;;;;;17.87;51.78;99063.44;4990926;28;20065;-80
2023/06/16 00:28:54;;;;;;;0.30;0.30;;;;;;;17.89;51.91;99069.41;4990946;28;20509;-81
2023/06/16 00:31:21;;;;;;;0.30;0.30;;;;;;;17.95;51.47;99070.97;4990877;28;20047;-80
2023/06/16 00:33:49;;;;;;;0.30;0.30;;;;;;;18.02;51.29;99063.25;4990793;28;20077;-80
2023/06/16 00:36:16;;;;;;;0.30;0.30;;;;;;;18.04;51.42;99077.41;4990748;28;20046;-80
2023/06/16 00:38:44;;;;;;;0.30;0.30;;;;;;;18.02;51.09;99065.97;4990788;28;20047;-80
2023/06/16 00:41:14;;;;;;;0.30;0.30;;;;;;;17.97;51.30;99061.38;4991049;28;20085;-81
2023/06/16 00:43:42;;;;;;;0.28;0.28;;;;;;;18.04;51.47;99063.75;4990796;28;20050;-80
2023/06/16 00:46:12;;;;;;;0.30;0.30;;;;;;;18.02;51.40;99065.97;4989861;28;20046;-81
2023/06/16 00:48:43;;;;;;;0.30;0.30;;;;;;;18.02;51.67;99065.16;4990690;28;20074;-80
2023/06/16 00:51:11;;;;;;;0.30;0.30;;;;;;;18.04;51.86;99069.22;4990746;28;20548;-81
2023/06/16 00:53:39;;;;;;;0.30;0.30;;;;;;;18.06;51.88;99077.94;4989308;28;20455;-81
2023/06/16 00:56:07;;;;;;;0.30;0.30;;;;;;;18.07;51.70;99073.28;4990551;28;20057;-82
2023/06/16 00:58:36;;;;;;;0.30;0.30;;;;;;;18.09;51.60;99066.44;4973093;28;20057;-81
2023/06/16 01:01:03;;;;;;;0.30;0.30;;;;;;;17.92;51.85;99044.25;4989360;28;20101;-81
2023/06/16 01:03:32;;;;;;;0.30;0.30;;;;;;;18.07;51.65;99065.91;4989198;28;20170;-81
2023/06/16 01:06:05;;;;;;;0.30;0.30;;;;;;;18.11;51.86;99079.81;4989478;28;20505;-81
2023/06/16 01:08:54;;;;;;;0.30;0.30;;;;;;;18.11;51.80;99080.63;4973649;28;20077;-81
2023/06/16 01:11:42;;;;;;;0.30;0.30;;;;;;;18.05;52.10;99075.50;4974502;28;20054;-81
2023/06/16 01:14:27;;;;;;;0.20;0.20;;;;;;;17.99;52.36;99069.28;4991150;28;20064;-81
2023/06/16 01:16:57;;;;;;;0.30;0.30;;;;;;;18.01;52.22;99075.28;4990605;28;20051;-81
2023/06/16 01:19:37;;;;;;;0.30;0.30;;;;;;;18.01;52.25;99069.00;4989149;28;20141;-82
2023/06/16 01:22:38;;;;;;;0.30;0.30;;;;;;;18.12;52.31;99070.50;5005083;28;20505;-80
2023/06/16 01:25:07;;;;;;;0.30;0.30;;;;;;;18.13;52.18;99069.41;4990356;28;20232;-80
2023/06/16 01:27:37;;;;;;;0.20;0.20;;;;;;;18.07;52.31;99057.72;4989821;28;20069;-81
2023/06/16 01:30:05;;;;;;;0.30;0.30;;;;;;;18.08;52.44;99064.81;4994064;28;20046;-81
2023/06/16 01:32:33;;;;;;;0.30;0.30;;;;;;;18.16;52.50;99066.88;5009370;28;20050;-82
2023/06/16 01:35:03;;;;;;;0.30;0.30;;;;;;;18.21;52.38;99057.81;4992552;28;20141;-81
2023/06/16 01:37:33;;;;;;;0.30;0.30;;;;;;;18.18;51.87;99053.75;4976868;28;20078;-81
2023/06/16 01:40:05;;;;;;;0.30;0.30;;;;;;;18.22;51.83;99048.50;4993955;28;20524;-81
2023/06/16 01:42:32;;;;;;;0.30;0.30;;;;;;;18.34;51.68;99067.22;5025491;28;20061;-82
2023/06/16 01:45:01;;;;;;;0.20;0.20;;;;;;;18.39;52.07;99070.69;4993968;28;20589;-81
2023/06/16 01:47:30;;;;;;;0.30;0.30;;;;;;;18.35;51.90;99046.97;4992643;28;20046;-81
2023/06/16 01:49:58;;;;;;;0.30;0.30;;;;;;;18.30;51.81;99047.84;5025193;28;20058;-81
2023/06/16 01:52:25;;;;;;;0.30;0.30;;;;;;;18.47;51.93;99068.41;4993797;28;20093;-82
2023/06/16 01:54:52;;;;;;;0.30;0.30;;;;;;;18.52;51.88;99073.78;4993575;28;20050;-81
2023/06/16 01:57:21;;;;;;;0.30;0.30;;;;;;;18.54;51.56;99072.38;4992567;28;20050;-81
2023/06/16 01:59:57;;;;;;;0.30;0.30;;;;;;;18.55;51.90;99065.81;4959983;28;20702;-81
2023/06/16 02:02:26;;;;;;;0.30;0.30;;;;;;;18.47;51.69;99061.00;4992412;28;20184;-81
2023/06/16 02:04:55;;;;;;;0.30;0.30;;;;;;;18.51;51.94;99056.59;4992187;28;20070;-81
2023/06/16 02:07:30;;;;;;;0.30;0.30;;;;;;;18.57;52.24;99071.78;4992078;28;20121;-81
2023/06/16 02:10:02;;;;;;;0.30;0.30;;;;;;;18.57;52.57;99066.31;4993682;28;20060;-81
2023/06/16 02:12:30;;;;;;;0.30;0.30;;;;;;;18.58;52.31;99062.50;4993688;28;20509;-80
2023/06/16 02:14:57;;;;;;;0.30;0.30;;;;;;;18.66;52.50;99062.91;4993211;28;20050;-80
2023/06/16 02:17:30;;;;;;;0.30;0.30;;;;;;;18.70;52.18;99056.56;5024754;28;20421;-82
2023/06/16 02:19:58;;;;;;;0.30;0.30;;;;;;;18.72;52.34;99059.00;4993169;28;20108;-81
2023/06/16 02:22:27;;;;;;;0.20;0.20;;;;;;;18.62;52.38;99049.84;4993306;28;20060;-82
2023/06/16 02:24:57;;;;;;;0.30;0.30;;;;;;;18.75;52.43;99061.16;4991936;28;20050;-81
2023/06/16 02:27:24;;;;;;;0.30;0.30;;;;;;;18.74;52.38;99065.00;5024607;28;20046;-82
2023/06/16 02:29:54;;;;;;;0.30;0.30;;;;;;;18.53;52.81;99032.50;4992974;28;20058;-82
2023/06/16 02:32:21;;;;;;;0.30;0.30;;;;;;;18.77;53.66;99061.69;4992794;28;20054;-81
2023/06/16 02:34:52;;;;;;;0.30;0.30;;;;;;;18.71;53.44;99049.16;4992593;28;20050;-80
2023/06/16 02:37:25;;;;;;;0.30;0.30;;;;;;;18.77;53.17;99053.50;5024228;28;20479;-81
2023/06/16 02:39:55;;;;;;;0.30;0.30;;;;;;;18.73;53.46;99038.75;4992167;28;20429;-81
2023/06/16 02:42:22;;;;;;;0.30;0.30;;;;;;;18.74;52.89;99032.19;4992292;28;20141;-81
2023/06/16 02:44:50;;;;;;;0.30;0.30;;;;;;;18.82;52.01;99028.81;4990783;28;20054;-81
2023/06/16 02:47:17;;;;;;;0.30;0.30;;;;;;;18.97;53.06;99053.16;4975462;28;20086;-81
2023/06/16 02:49:45;;;;;;;0.30;0.30;;;;;;;19.11;52.77;99057.88;4991198;28;20137;-80
2023/06/16 02:52:13;;;;;;;0.30;0.30;;;;;;;19.14;53.05;99058.09;4992318;28;20046;-79
2023/06/16 02:54:41;;;;;;;0.30;0.30;;;;;;;19.21;52.67;99053.03;4990520;28;20058;-80
2023/06/16 02:57:13;;;;;;;0.30;0.30;;;;;;;19.24;52.53;99051.59;4988502;28;20072;-81
2023/06/16 02:59:47;;;;;;;0.30;0.30;;;;;;;19.23;52.66;99050.81;4990536;28;20424;-81
2023/06/16 03:02:16;;;;;;;0.30;0.30;;;;;;;19.20;52.37;99031.47;4986902;28;20165;-82
2023/06/16 03:04:51;;;;;;;0.30;0.30;;;;;;;19.40;52.74;99052.16;4980802;28;20053;-81
2023/06/16 03:07:23;;;;;;;0.30;0.30;;;;;;;19.45;52.00;99052.88;4980784;28;20069;-81
2023/06/16 03:09:51;;;;;;;0.30;0.30;;;;;;;19.57;51.52;99057.88;5001347;28;20565;-82
2023/06/16 03:12:20;;;;;;;0.30;0.30;;;;;;;19.65;51.29;99056.34;4991352;28;20505;-82
2023/06/16 03:14:56;;;;;;;0.30;0.30;;;;;;;19.72;51.35;99054.03;4991151;28;20072;-80
2023/06/16 03:17:24;;;;;;;0.30;0.30;;;;;;;19.73;51.19;99041.19;4991166;28;20125;-81
2023/06/16 03:19:52;;;;;;;0.30;0.30;;;;;;;19.82;50.92;99045.63;4991311;28;20053;-82
2023/06/16 03:22:40;;;;;;;0.30;0.30;;;;;;;19.95;50.71;99048.66;4990124;28;20054;-81
2023/06/16 03:25:08;;;;;;;0.30;0.30;;;;;;;20.03;50.33;99050.72;5012228;28;20101;-82
2023/06/16 03:27:42;;;;;;;;;;;;;;;20.22;49.69;99056.03;4974922;28;20050;-81
2023/06/16 03:30:10;;;;;;;0.30;0.30;;;;;;;20.26;49.40;99044.16;4971132;28;20123;-82
2023/06/16 03:32:58;;;;;;;0.30;0.30;;;;;;;20.50;47.35;99054.84;5003606;28;20132;-81
2023/06/16 03:35:27;;;;;;;0.30;0.30;;;;;;;20.54;47.00;99042.19;4974116;28;20514;-81
2023/06/16 03:37:57;;;;;;;0.30;0.30;;;;;;;20.69;47.35;99049.25;5023367;28;20198;-82
2023/06/16 03:40:25;;;;;;;0.30;0.30;;;;;;;20.78;46.41;99052.06;5006647;28;20133;-82
2023/06/16 03:42:52;;;;;;;0.30;0.30;;;;;;;20.72;45.86;99034.91;4990763;28;20085;-82
2023/06/16 03:45:22;;;;;;;0.30;0.30;;;;;;;20.79;46.35;99045.47;4989549;28;20089;-83
2023/06/16 03:47:51;;;;;;;0.30;0.30;;;;;;;21.02;46.88;99051.75;4989585;28;20371;-80
2023/06/16 03:50:19;;;;;;;0.30;0.30;;;;;;;21.23;47.14;99043.81;4990343;28;20085;-80
2023/06/16 03:52:47;;;;;;;0.30;0.30;;;;;;;21.42;46.65;99043.63;4989744;28;20114;-80
2023/06/16 03:55:20;;;;;;;0.30;0.30;;;;;;;21.43;46.26;99045.25;4989993;28;20819;-83
2023/06/16 03:57:48;;;;;;;0.28;0.28;;;;;;;21.41;45.78;99055.72;4983549;28;20085;-79
2023/06/16 04:00:18;;;;;;;0.30;0.30;;;;;;;21.37;45.95;99043.72;4983129;28;20100;-81
2023/06/16 04:02:53;;;;;;;0.30;0.30;;;;;;;21.41;45.18;99040.06;4978931;28;20074;-79
2023/06/16 04:05:26;;;;;;;0.30;0.30;;;;;;;21.61;44.22;99048.88;4989780;28;20517;-80
2023/06/16 04:07:57;;;;;;;0.30;0.30;;;;;;;21.69;43.16;99037.13;4989014;28;20517;-82
2023/06/16 04:10:25;;;;;;;0.30;0.30;;;;;;;21.78;42.41;99034.41;4974039;28;20050;-82
2023/06/16 04:12:53;;;;;;;0.30;0.30;;;;;;;21.89;42.24;99038.47;4991271;28;20133;-82
2023/06/16 04:15:21;;;;;;;0.30;0.30;;;;;;;22.04;42.54;99038.03;4988915;28;20054;-83
2023/06/16 04:18:10;;;;;;;0.30;0.30;;;;;;;22.14;42.62;99036.13;4988799;28;20046;-81
2023/06/16 04:20:37;;;;;;;0.30;0.30;;;;;;;22.14;42.48;99036.94;4988239;28;20054;-82
2023/06/16 04:23:11;;;;;;;0.30;0.30;;;;;;;22.21;42.51;99042.00;4989082;28;20077;-81
2023/06/16 04:25:38;;;;;;;0.30;0.30;;;;;;;22.19;43.15;99034.06;4986442;28;20065;-82
2023/06/16 04:28:07;;;;;;;0.30;0.30;;;;;;;22.35;42.56;99045.41;4989523;28;20054;-81
2023/06/16 04:30:52;;;;;;;0.30;0.30;;;;;;;22.44;42.35;99032.47;4990384;28;20046;-82
2023/06/16 04:33:22;;;;;;;0.30;0.30;;;;;;;22.51;42.66;99037.50;4973739;28;20052;-83
2023/06/16 04:35:51;;;;;;;0.30;0.30;;;;;;;22.58;41.75;99031.50;4988957;28;20137;-83
2023/06/16 04:38:25;;;;;;;0.30;0.30;;;;;;;22.66;41.98;99033.44;4989507;28;20077;-82
2023/06/16 04:40:55;;;;;;;0.20;0.20;;;;;;;22.74;42.04;99038.16;5005492;28;20046;-84
2023/06/16 04:43:25;;;;;;;0.20;0.20;;;;;;;22.72;41.40;99032.97;4990568;28;20053;-83
2023/06/16 04:45:57;;;;;;;0.20;0.20;;;;;;;22.61;41.74;99020.69;5005495;28;20133;-82
2023/06/16 04:48:25;;;;;;;0.30;0.30;;;;;;;22.83;41.20;99036.19;5021017;28;20065;-84
2023/06/16 04:50:53;;;;;;;0.30;0.30;;;;;;;22.87;40.81;99033.59;4967521;28;20082;-82
2023/06/16 04:53:20;;;;;;;0.30;0.30;;;;;;;23.04;40.72;99043.78;4985456;28;20137;-83
2023/06/16 04:55:48;;;;;;;0.30;0.30;;;;;;;23.05;40.92;99048.19;4987126;28;20070;-82
2023/06/16 04:58:16;;;;;;;0.30;0.30;;;;;;;23.00;40.96;99051.09;4988474;28;20137;-83
2023/06/16 05:00:43;;;;;;;0.30;0.30;;;;;;;22.92;41.07;99042.50;4989048;28;20536;-84
2023/06/16 05:03:10;;;;;;;0.30;0.30;;;;;;;22.95;40.79;99046.53;4999682;28;20042;-83
2023/06/16 05:05:41;;;;;;;0.30;0.30;;;;;;;23.03;40.61;99037.50;5009005;28;20050;-83
2023/06/16 05:08:08;;;;;;;0.30;0.30;;;;;;;23.15;40.42;99050.59;4993223;28;20511;-83
2023/06/16 05:10:36;;;;;;;0.30;0.30;;;;;;;23.27;40.13;99047.97;4646244;28;10000582;-82
2023/06/16 05:13:03;;;;;;;0.30;0.30;;;;;;;23.40;39.95;99050.88;4991458;28;20064;-82
2023/06/16 05:15:33;;;;;;;0.30;0.30;;;;;;;23.49;39.69;99041.41;4998299;28;20402;-81
2023/06/16 05:18:08;;;;;;;0.30;0.30;;;;;;;23.68;39.42;99054.00;4974473;28;20042;-83
2023/06/16 05:20:37;;;;;;;0.20;0.20;;;;;;;23.64;39.96;99031.00;4989664;28;20050;-83
2023/06/16 05:23:06;;;;;;;0.30;0.30;;;;;;;23.91;39.48;99043.56;4982910;28;20154;-82
2023/06/16 05:25:33;;;;;;;0.30;0.30;;;;;;;24.02;38.88;99055.81;5002212;28;20077;-83
2023/06/16 05:28:04;;;;;;;0.30;0.30;;;;;;;23.98;38.55;99030.06;4954244;28;20097;-84
2023/06/16 05:30:37;;;;;;;0.30;0.30;;;;;;;24.14;37.78;99041.31;4986306;28;20151;-84
2023/06/16 05:33:05;;;;;;;0.30;0.30;;;;;;;24.20;36.63;99042.72;5010345;28;20057;-84
2023/06/16 05:35:32;;;;;;;0.30;0.30;;;;;;;24.29;36.42;99046.25;4984811;28;20684;-85
2023/06/16 05:38:02;;;;;;;0.30;0.30;;;;;;;24.35;36.33;99049.59;4970374;28;20097;-84
2023/06/16 05:40:32;;;;;;;0.25;0.25;;;;;;;24.37;35.39;99044.56;4986290;28;20168;-82
2023/06/16 05:43:01;;;;;;;0.20;0.20;;;;;;;24.49;35.03;99041.13;4974476;28;20051;-85
2023/06/16 05:45:28;;;;;;;0.20;0.20;;;;;;;24.52;34.86;99032.97;4988689;28;20063;-84
2023/06/16 05:47:56;;;;;;;0.25;0.25;;;;;;;24.50;34.45;99035.25;4984117;28;20093;-84
2023/06/16 05:50:38;;;;;;;0.20;0.20;;;;;;;24.37;35.31;99022.50;4991260;28;20054;-84
2023/06/16 05:53:05;;;;;;;0.20;0.20;;;;;;;24.58;35.15;99033.56;4992267;28;20066;-84
2023/06/16 05:58:25;;;;;;;0.20;0.20;;;;;;;24.75;34.67;99038.13;4991794;28;20054;-84
2023/06/16 06:00:55;;;;;;;0.20;0.20;;;;;;;24.69;33.75;99022.91;4993294;28;20039;-85
2023/06/16 06:03:23;;;;;;;0.20;0.20;;;;;;;24.68;34.27;99021.31;4975955;28;20056;-86
2023/06/16 06:05:50;;;;;;;0.20;0.20;;;;;;;24.82;33.76;99016.31;4991671;28;20128;-84
2023/06/16 06:08:27;;;;;;;0.20;0.20;;;;;;;24.84;33.05;99025.06;4990703;28;20569;-84
2023/06/16 06:10:56;;;;;;;0.20;0.20;;;;;;;24.74;33.75;99026.31;5005381;28;20065;-84
2023/06/16 06:13:26;;;;;;;0.20;0.20;;;;;;;25.08;32.77;99030.66;4976546;28;20154;-82
2023/06/16 06:15:55;;;;;;;0.20;0.20;;;;;;;25.12;32.73;99027.22;5008370;28;20553;-83
2023/06/16 06:18:22;;;;;;;0.20;0.20;;;;;;;25.11;31.94;99034.69;4991765;28;20149;-83
2023/06/16 06:20:50;;;;;;;0.20;0.20;;;;;;;25.22;32.50;99040.63;5001889;28;20085;-82
2023/06/16 06:23:36;;;;;;;0.20;0.20;;;;;;;25.54;31.73;99035.41;4991884;28;20054;-82
2023/06/16 06:26:07;;;;;;;0.30;0.30;;;;;;;25.68;31.72;99035.88;4992023;28;20085;-80
2023/06/16 06:28:35;;;;;;;0.20;0.20;;;;;;;25.93;31.22;99042.25;4991381;28;20137;-81
2023/06/16 06:31:09;;;;;;;0.30;0.30;;;;;;;26.09;30.90;99037.63;5006890;28;20050;-80
2023/06/16 06:33:38;;;;;;;0.30;0.30;;;;;;;26.14;29.65;99025.53;4994447;28;20046;-82
2023/06/16 06:36:23;;;;;;;0.20;0.20;;;;;;;26.10;29.90;99041.19;4991100;28;20050;-83
2023/06/16 06:38:52;;;;;;;0.20;0.20;;;;;;;25.94;29.53;99017.00;4988307;28;20160;-82
2023/06/16 06:41:22;;;;;;;0.20;0.20;;;;;;;25.88;29.97;99020.38;4989382;28;20055;-85
2023/06/16 06:43:55;;;;;;;0.20;0.20;;;;;;;25.71;30.35;99015.84;5018672;28;20141;-81
2023/06/16 06:46:42;;;;;;;0.20;0.20;;;;;;;25.64;31.60;99021.94;4999281;28;20165;-82
2023/06/16 06:49:10;;;;;;;0.20;0.20;;;;;;;25.50;31.17;99030.56;4954128;28;20042;-83
2023/06/16 06:51:38;;;;;;;0.20;0.20;;;;;;;25.54;31.54;99038.16;4986705;28;20043;-82
2023/06/16 06:54:08;;;;;;;0.20;0.20;;;;;;;25.47;31.50;99022.16;4987044;28;20055;-83
2023/06/16 06:56:36;;;;;;;0.20;0.20;;;;;;;25.32;30.59;99029.16;4987453;28;20061;-82
2023/06/16 06:59:04;;;;;;;0.20;0.20;;;;;;;25.35;30.42;99030.44;4988018;28;20076;-83
2023/06/16 07:01:31;;;;;;;0.20;0.20;;;;;;;25.23;30.08;99011.88;4988241;28;20042;-82
2023/06/16 07:03:59;;;;;;;0.20;0.20;;;;;;;25.34;29.69;99032.38;4988236;28;20073;-82
2023/06/16 07:06:27;;;;;;;0.20;0.20;;;;;;;25.32;29.39;99033.84;4988111;28;20054;-84
2023/06/16 07:08:54;;;;;;;0.20;0.20;;;;;;;25.28;29.80;99019.94;4986940;28;20054;-82
2023/06/16 07:11:25;;;;;;;0.20;0.20;;;;;;;25.38;29.93;99027.78;4987706;28;20559;-82
2023/06/16 07:13:52;;;;;;;0.20;0.20;;;;;;;25.52;30.09;99025.50;4987669;28;20046;-82
2023/06/16 07:16:19;;;;;;;0.20;0.20;;;;;;;25.65;30.49;99025.50;4971470;28;20078;-81
2023/06/16 07:18:49;;;;;;;0.20;0.20;;;;;;;25.57;30.14;99018.13;4981171;28;20042;-80
2023/06/16 07:21:17;;;;;;;0.20;0.20;;;;;;;25.69;29.39;99029.19;4983523;28;20521;-82
2023/06/16 07:23:48;;;;;;;0.20;0.20;;;;;;;25.80;30.07;99024.84;4985093;28;20461;-82
2023/06/16 07:26:15;;;;;;;0.20;0.20;;;;;;;25.92;29.41;99019.31;5001585;28;20065;-82
2023/06/16 07:28:42;;;;;;;0.25;0.25;;;;;;;26.29;28.34;99026.78;4984683;28;20078;-82
2023/06/16 07:31:10;;;;;;;0.30;0.30;;;;;;;26.72;27.90;99017.00;4985784;28;20165;-82
2023/06/16 07:33:41;;;;;;;0.20;0.20;;;;;;;27.12;27.94;99018.88;4984446;28;20050;-82
2023/06/16 07:36:08;;;;;;;0.22;0.22;;;;;;;27.33;28.04;99016.72;4984875;28;20529;-82
2023/06/16 07:38:36;;;;;;;0.20;0.20;;;;;;;27.35;26.29;99016.38;4984985;28;20632;-82
2023/06/16 07:41:08;;;;;;;0.20;0.20;;;;;;;27.33;27.02;99010.38;4968406;28;20053;-81
2023/06/16 07:43:36;;;;;;;0.20;0.20;;;;;;;27.70;27.55;99019.22;4640803;28;10000416;-82
2023/06/16 07:46:03;;;;;;;0.20;0.20;;;;;;;27.82;26.54;99012.78;4986116;28;20065;-83
2023/06/16 07:48:30;;;;;;;0.20;0.20;;;;;;;27.60;26.02;98990.09;5017656;28;20058;-82
2023/06/16 07:51:00;;;;;;;0.25;0.25;;;;;;;27.77;25.97;99007.50;4985579;28;20054;-84
2023/06/16 07:53:27;;;;;;;0.20;0.20;;;;;;;27.88;26.76;99005.84;4986715;28;20054;-82
2023/06/16 07:55:55;;;;;;;0.20;0.20;;;;;;;27.64;25.72;99001.25;4986110;28;20058;-84
2023/06/16 07:58:24;;;;;;;0.30;0.30;;;;;;;27.36;26.57;98990.25;4979952;28;20162;-85
2023/06/16 08:00:57;;;;;;;0.20;0.20;;;;;;;27.51;27.21;99008.06;4986248;28;20134;-82
2023/06/16 08:03:24;;;;;;;0.30;0.30;;;;;;;27.85;27.24;98992.66;4987420;28;20050;-85
2023/06/16 08:05:52;;;;;;;0.20;0.20;;;;;;;28.17;25.42;99006.47;4986457;28;20078;-83
2023/06/16 08:08:20;;;;;;;0.20;0.20;;;;;;;28.12;25.59;99009.53;4977098;28;20065;-82
2023/06/16 08:10:47;;;;;;;0.30;0.30;;;;;;;28.26;25.34;98999.56;4986131;28;20050;-81
2023/06/16 08:13:14;;;;;;;0.20;0.20;;;;;;;28.01;25.70;98999.00;4985096;28;20050;-79
2023/06/16 08:15:44;;;;;;;0.30;0.30;;;;;;;28.44;25.01;98994.41;4988022;28;20050;-81
2023/06/16 08:18:11;;;;;;;0.20;0.20;;;;;;;28.20;24.55;98981.56;4980696;28;20050;-82
2023/06/16 08:20:57;;;;;;;0.30;0.30;;;;;;;28.50;24.85;99006.03;4985760;28;20053;-82
2023/06/16 08:23:27;;;;;;;0.20;0.20;;;;;;;29.01;24.54;98991.97;4986401;28;20544;-82
2023/06/16 08:25:55;;;;;;;0.30;0.30;;;;;;;29.12;24.47;98978.31;4979530;28;20053;-83
2023/06/16 08:28:22;;;;;;;0.30;0.30;;;;;;;29.39;23.84;98996.66;4993197;28;20141;-82
2023/06/16 08:30:50;;;;;;;0.30;0.30;;;;;;;29.62;23.60;98995.84;4985824;28;20061;-81
2023/06/16 08:33:17;;;;;;;0.28;0.28;;;;;;;29.80;23.29;98998.94;4985091;28;20069;-81
2023/06/16 08:35:45;;;;;;;0.30;0.30;;;;;;;30.12;22.92;99006.97;5000034;28;20416;-81
2023/06/16 08:38:12;;;;;;;0.30;0.30;;;;;;;30.12;21.81;98991.06;4986704;28;20495;-81
2023/06/16 08:40:39;;;;;;;0.30;0.30;;;;;;;30.11;22.92;99002.59;4988040;28;20060;-82
2023/06/16 08:43:08;;;;;;;0.30;0.30;;;;;;;30.40;21.84;98993.47;5004203;28;20074;-81
2023/06/16 08:45:39;;;;;;;0.30;0.30;;;;;;;30.81;21.20;98992.75;4955153;28;20515;-82
2023/06/16 08:48:10;;;;;;;0.30;0.30;;;;;;;31.29;20.85;98984.53;4963135;28;20042;-82
2023/06/16 08:50:38;;;;;;;0.30;0.30;;;;;;;31.99;20.41;99007.88;4988176;28;20156;-82
2023/06/16 08:53:10;;;;;;;0.30;0.30;;;;;;;32.29;20.01;98996.47;4989122;28;20054;-83
2023/06/16 08:55:42;;;;;;;0.30;0.30;;;;;;;32.52;19.33;98992.63;4989276;28;20117;-82
2023/06/16 08:58:11;;;;;;;0.20;0.20;;;;;;;31.59;19.86;98992.78;4985371;28;20060;-82
2023/06/16 09:00:39;;;;;;;0.20;0.20;;;;;;;31.02;20.72;98995.81;4989609;28;20046;-82
2023/06/16 09:03:08;;;;;;;0.40;0.40;;;;;;;31.67;20.75;98985.28;4988617;28;20154;-83
2023/06/16 09:05:36;;;;;;;0.40;0.40;;;;;;;32.34;20.04;98965.41;4965476;28;20858;-83
2023/06/16 09:08:05;;;;;;;0.10;0.10;;;;;;;31.72;19.91;98976.53;4990086;28;20092;-85
2023/06/16 09:10:34;;;;;;;0.20;0.20;;;;;;;30.77;20.75;98980.78;4989745;28;20066;-82
2023/06/16 09:13:02;;;;;;;0.10;0.10;;;;;;;30.14;21.44;98960.09;4991746;28;20140;-82
2023/06/16 09:15:33;;;;;;;0.10;0.10;;;;;;;29.62;22.08;98979.16;4988440;28;20054;-81
2023/06/16 09:18:06;;;;;;;0.30;0.30;;;;;;;30.21;22.58;98976.88;4990672;28;20193;-83
2023/06/16 09:20:38;;;;;;;0.40;0.40;;;;;;;31.69;20.69;98958.59;4989198;28;20112;-83
2023/06/16 09:23:05;;;;;;;0.30;0.30;;;;;;;32.72;19.79;98957.59;4989140;28;20054;-81
2023/06/16 09:25:35;;;;;;;0.10;0.10;;;;;;;32.26;19.95;98979.69;5005575;28;20062;-82
2023/06/16 09:28:08;;;;;;;0.10;0.10;;;;;;;31.01;20.47;98968.34;4988714;28;20824;-83
2023/06/16 09:30:38;;;;;;;0.10;0.10;;;;;;;29.97;22.10;98978.13;4989557;28;20108;-81
2023/06/16 09:33:11;;;;;;;0.10;0.10;;;;;;;29.13;22.86;98991.03;4986492;28;20058;-82
2023/06/16 09:35:41;;;;;;;0.20;0.20;;;;;;;28.35;23.60;98962.47;4991567;28;20054;-82
2023/06/16 09:38:09;;;;;;;0.10;0.10;;;;;;;27.79;24.49;98989.34;4989300;28;20052;-83
2023/06/16 09:40:38;;;;;;;0.20;0.20;;;;;;;27.28;24.47;98972.66;4990814;28;20081;-81
2023/06/16 09:43:10;;;;;;;0.20;0.20;;;;;;;27.33;24.73;98975.16;4966188;28;20492;-83
2023/06/16 09:45:40;;;;;;;0.40;0.40;;;;;;;28.29;24.19;98971.09;5004089;28;20677;-82
2023/06/16 09:48:10;;;;;;;0.40;0.40;;;;;;;30.23;22.39;98969.78;4984553;28;20061;-82
2023/06/16 09:50:40;;;;;;;0.32;0.32;;;;;;;31.43;21.17;98979.13;4989103;28;20050;-83
2023/06/16 09:53:10;;;;;;;0.40;0.40;;;;;;;32.26;20.37;98952.59;4984792;28;20240;-82
2023/06/16 09:55:44;;;;;;;0.20;0.20;;;;;;;32.31;21.16;98962.56;4982501;28;20055;-82
2023/06/16 09:58:15;;;;;;;0.20;0.20;;;;;;;32.15;21.13;98971.28;4986261;28;20480;-82
2023/06/16 10:00:47;;;;;;;0.20;0.20;;;;;;;32.57;21.03;98969.91;4978979;28;20058;-83
2023/06/16 10:03:15;;;;;;;0.30;0.30;;;;;;;32.73;20.50;98948.00;4988841;28;20058;-81
2023/06/16 10:05:46;;;;;;;0.30;0.30;;;;;;;33.13;20.15;98954.50;4970788;28;20046;-82
2023/06/16 10:08:17;;;;;;;0.30;0.30;;;;;;;33.60;19.80;98962.91;4980516;28;20057;-83
2023/06/16 10:10:48;;;;;;;0.20;0.20;;;;;;;33.50;19.79;98944.94;4987981;28;20588;-81
2023/06/16 10:13:16;;;;;;;0.40;0.40;;;;;;;33.90;19.51;98948.47;5008114;28;20497;-82
2023/06/16 10:15:44;;;;;;;0.20;0.20;;;;;;;33.20;19.60;98934.16;5009529;28;20054;-81
2023/06/16 10:18:14;;;;;;;0.20;0.20;;;;;;;33.34;19.45;98958.50;5021064;28;20073;-82
2023/06/16 10:20:42;;;;;;;0.40;0.40;;;;;;;34.59;17.79;98957.50;5004096;28;20607;-83
2023/06/16 10:23:12;;;;;;;0.30;0.30;;;;;;;35.52;17.45;98945.69;5004616;28;20794;-81
2023/06/16 10:25:40;;;;;;;0.40;0.40;;;;;;;35.62;17.39;98935.59;5006479;28;20042;-82
2023/06/16 10:28:11;;;;;;;0.10;0.10;;;;;;;35.96;17.31;98932.88;5005957;28;20053;-82
2023/06/16 10:30:39;;;;;;;0.10;0.10;;;;;;;34.00;19.00;98942.06;5005567;28;20530;-81
2023/06/16 10:33:25;;;;;;;0.10;0.10;;;;;;;32.56;20.15;98943.16;4987226;28;20058;-83
2023/06/16 10:35:54;;;;;;;0.10;0.10;;;;;;;31.55;21.05;98939.00;4988189;28;20124;-82
2023/06/16 10:38:42;;;;;;;0.10;0.10;;;;;;;30.80;21.91;98915.97;4988075;28;20042;-82
2023/06/16 10:41:14;;;;;;;0.10;0.10;;;;;;;30.63;22.53;98925.72;4987446;28;20050;-82
2023/06/16 10:43:46;;;;;;;0.10;0.10;;;;;;;30.50;22.80;98932.75;4988232;28;20058;-81
2023/06/16 10:46:14;;;;;;;0.10;0.10;;;;;;;30.41;22.68;98924.66;4971262;28;20053;-83
2023/06/16 10:49:02;;;;;;;0.40;0.40;;;;;;;31.86;21.49;98929.22;4986326;28;20416;-81
2023/06/16 10:51:42;;;;;;;0.10;0.10;;;;;;;32.11;20.78;98915.44;4985826;28;20133;-83
2023/06/16 10:54:10;;;;;;;0.10;0.10;;;;;;;31.58;21.64;98927.06;4985747;28;20054;-83
2023/06/16 10:57:09;;;;;;;0.10;0.10;;;;;;;31.75;21.58;98922.75;4987078;28;20109;-83
2023/06/16 11:00:13;;;;;;;0.40;0.40;;;;;;;33.18;19.82;98895.41;4968223;28;20081;-81
2023/06/16 11:02:57;;;;;;;0.40;0.40;;;;;;;35.02;18.40;98910.41;4984486;28;20535;-81
2023/06/16 11:05:48;;;;;;;0.40;0.40;;;;;;;36.35;17.17;98918.38;4958438;28;20604;-81
2023/06/16 11:08:16;;;;;;;0.40;0.40;;;;;;;36.43;16.49;98905.03;4984772;28;20056;-82
2023/06/16 11:10:51;;;;;;;0.40;0.40;;;;;;;36.76;17.05;98908.22;4984497;28;20515;-79
2023/06/16 11:13:25;;;;;;;0.40;0.40;;;;;;;37.37;15.79;98885.53;4985724;28;20624;-81
2023/06/16 11:15:55;;;;;;;0.30;0.30;;;;;;;35.59;16.74;98912.78;4985882;28;20863;-81
2023/06/16 11:18:27;;;;;;;0.40;0.40;;;;;;;35.75;17.36;98906.63;4984373;28;20054;-82
2023/06/16 11:20:58;;;;;;;0.20;0.20;;;;;;;35.92;17.46;98912.44;4985494;28;20061;-82
2023/06/16 11:23:26;;;;;;;0.40;0.40;;;;;;;36.41;16.66;98910.25;4986563;28;20050;-83
2023/06/16 11:26:03;;;;;;;0.40;0.40;;;;;;;37.67;15.63;98909.97;4989067;28;20051;-81
2023/06/16 11:28:47;;;;;;;0.30;0.30;;;;;;;38.10;15.45;98892.25;4967770;28;20050;-81
2023/06/16 11:31:14;;;;;;;0.10;0.10;;;;;;;36.91;16.53;98903.97;4988905;28;20050;-82
2023/06/16 11:33:42;;;;;;;0.10;0.10;;;;;;;35.32;17.63;98901.38;4956558;28;20133;-82
2023/06/16 11:36:19;;;;;;;0.10;0.10;;;;;;;33.84;18.55;98880.16;4997862;28;20065;-81
2023/06/16 11:38:49;;;;;;;0.10;0.10;;;;;;;33.17;19.47;98899.41;4989933;28;20505;-81
2023/06/16 11:41:17;;;;;;;0.10;0.10;;;;;;;32.78;20.06;98894.53;5006501;28;20581;-82
2023/06/16 11:43:46;;;;;;;0.20;0.20;;;;;;;32.76;20.26;98901.69;4991324;28;20062;-81
2023/06/16 11:46:30;;;;;;;0.10;0.10;;;;;;;32.95;19.78;98898.53;4990309;28;20058;-82
2023/06/16 11:48:58;;;;;;;0.20;0.20;;;;;;;33.19;19.25;98890.59;4991383;28;20129;-82
2023/06/16 11:51:32;;;;;;;0.20;0.20;;;;;;;33.82;18.92;98896.53;4991281;28;20058;-81
2023/06/16 11:54:00;;;;;;;0.40;0.40;;;;;;;34.15;18.52;98897.25;4990099;28;20191;-81